Time;durP1;ratioP1;P1;durP2;ratioP2;P2;SDS_P1;SDS_P2;PMS_P1;PMS_P2;Temp;Humidity;BMP_temperature;BMP_pressure;BME280_temperature;BME280_humidity;BME280_pressure;Samples;Min_cycle;Max_cycle;Signal;HPM_P1;HPM_P2
2022/01/01 00:00:35;;;;;;;0.50;0.50;;;;;;;12.63;85.68;101808.75;5071914;29;20281;-82
2022/01/01 00:03:06;;;;;;;0.68;0.68;;;;;;;12.66;85.74;101814.81;5063364;29;20032;-81
2022/01/01 00:05:37;;;;;;;0.73;0.73;;;;;;;12.70;85.77;101815.63;5095014;29;20044;-81
2022/01/01 00:08:08;;;;;;;0.50;0.50;;;;;;;12.68;85.97;101805.13;5082885;29;20063;-81
2022/01/01 00:10:44;;;;;;;0.88;0.88;;;;;;;12.68;85.87;101814.81;5053791;29;20107;-81
2022/01/01 00:13:14;;;;;;;1.25;1.15;;;;;;;12.63;86.26;101811.38;5072090;29;20120;-82
2022/01/01 00:15:45;;;;;;;0.95;0.95;;;;;;;12.60;86.63;101807.03;5049804;29;20047;-83
2022/01/01 00:18:16;;;;;;;2.03;1.92;;;;;;;12.64;86.23;101802.59;5065896;29;20130;-83
2022/01/01 00:20:47;;;;;;;2.22;1.90;;;;;;;12.62;86.11;101818.41;5079244;29;20040;-80
2022/01/01 00:23:17;;;;;;;1.05;1.05;;;;;;;12.73;86.26;101815.59;5070299;29;20047;-81
2022/01/01 00:25:48;;;;;;;1.02;1.02;;;;;;;12.65;86.20;101814.84;5065848;29;20496;-82
2022/01/01 00:28:19;;;;;;;1.50;1.17;;;;;;;12.65;86.43;101820.13;5099585;29;20058;-82
2022/01/01 00:30:50;;;;;;;1.10;1.00;;;;;;;12.62;86.39;101826.31;5119153;29;20053;-82
2022/01/01 00:33:20;;;;;;;5.03;2.03;;;;;;;12.60;86.58;101826.31;5073632;29;20032;-81
2022/01/01 00:35:51;;;;;;;0.90;0.90;;;;;;;12.66;86.27;101819.22;5077626;29;20048;-82
2022/01/01 00:38:24;;;;;;;5.93;2.15;;;;;;;12.63;86.18;101822.78;5079465;29;20052;-82
2022/01/01 00:40:55;;;;;;;1.45;1.35;;;;;;;12.63;86.48;101819.28;5073384;29;20040;-83
2022/01/01 00:43:26;;;;;;;1.00;1.00;;;;;;;12.60;86.58;101815.78;5050324;29;20098;-82
2022/01/01 00:45:57;;;;;;;1.35;1.33;;;;;;;12.60;86.49;101815.78;5056171;29;20047;-82
2022/01/01 00:48:27;;;;;;;2.35;2.25;;;;;;;12.58;86.62;101817.59;5084032;29;20043;-82
2022/01/01 00:50:58;;;;;;;7.97;3.22;;;;;;;12.60;86.51;101817.56;5073441;29;20042;-81
2022/01/01 00:53:30;;;;;;;1.67;1.58;;;;;;;12.56;86.73;101818.53;5084994;29;20036;-82
2022/01/01 00:56:00;;;;;;;2.92;2.67;;;;;;;12.63;86.34;101821.91;5082878;29;20055;-82
2022/01/01 00:58:31;;;;;;;7.15;3.38;;;;;;;12.63;86.07;101824.53;5052752;29;20056;-81
2022/01/01 01:01:08;;;;;;;1.92;1.83;;;;;;;12.66;86.10;101825.34;5093921;29;20087;-82
2022/01/01 01:03:44;;;;;;;2.17;2.00;;;;;;;12.63;86.14;101829.81;5047366;28;20119;-82
2022/01/01 01:06:18;;;;;;;2.22;2.00;;;;;;;12.63;86.22;101827.16;5077853;29;20176;-82
2022/01/01 01:08:53;;;;;;;2.00;1.90;;;;;;;12.60;86.17;101830.72;5053550;29;20048;-83
2022/01/01 01:11:25;;;;;;;3.42;2.30;;;;;;;12.57;86.01;101825.50;5080976;29;20036;-80
2022/01/01 01:14:00;;;;;;;2.20;2.10;;;;;;;12.59;85.86;101829.88;5063970;29;20043;-81
2022/01/01 01:16:34;;;;;;;3.03;2.53;;;;;;;12.59;85.93;101834.25;5081360;29;20040;-81
2022/01/01 01:19:05;;;;;;;2.85;2.65;;;;;;;12.57;85.63;101831.66;5077100;29;20059;-80
2022/01/01 01:21:35;;;;;;;5.20;3.63;;;;;;;12.52;86.01;101828.22;5084057;29;20036;-81
2022/01/01 01:24:06;;;;;;;4.25;2.67;;;;;;;12.58;85.16;101829.88;5087067;29;20504;-81
2022/01/01 01:26:37;;;;;;;4.55;2.60;;;;;;;12.60;85.29;101831.59;5063448;29;20025;-81
2022/01/01 01:29:08;;;;;;;3.88;3.15;;;;;;;12.64;84.99;101831.53;5081296;29;20781;-80
2022/01/01 01:31:41;;;;;;;2.20;2.03;;;;;;;12.69;84.38;101830.56;5066029;29;20036;-80
2022/01/01 01:34:12;;;;;;;2.08;1.92;;;;;;;12.68;84.17;101834.09;5076600;29;20041;-81
2022/01/01 01:36:43;;;;;;;1.65;1.55;;;;;;;12.65;83.56;101830.66;5095924;29;20084;-81
2022/01/01 01:39:13;;;;;;;3.50;2.25;;;;;;;12.67;83.05;101826.25;5065486;29;20048;-81
2022/01/01 01:41:46;;;;;;;1.55;1.45;;;;;;;12.62;83.10;101828.06;5082217;29;20395;-81
2022/01/01 01:44:32;;;;;;;4.25;1.95;;;;;;;12.60;83.10;101836.00;5067609;29;20052;-81
2022/01/01 01:47:13;;;;;;;2.83;2.58;;;;;;;12.58;83.43;101827.25;5096658;29;20090;-81
2022/01/01 01:49:45;;;;;;;2.67;2.45;;;;;;;12.54;84.01;101842.25;5061061;29;20119;-82
2022/01/01 01:52:17;;;;;;;2.42;2.28;;;;;;;12.57;84.02;101834.28;5064147;29;20127;-82
2022/01/01 01:54:47;;;;;;;1.67;1.58;;;;;;;12.57;84.22;101836.03;5062974;29;20119;-81
2022/01/01 01:57:19;;;;;;;2.30;1.77;;;;;;;12.59;84.51;101837.78;5086445;29;20587;-81
2022/01/01 01:59:51;;;;;;;1.73;1.60;;;;;;;12.60;84.53;101843.91;5072561;29;20056;-82
2022/01/01 02:02:22;;;;;;;1.13;1.10;;;;;;;12.56;84.20;101837.81;5058547;29;20476;-80
2022/01/01 02:04:52;;;;;;;0.73;0.73;;;;;;;12.56;83.77;101848.34;5077623;29;20179;-81
2022/01/01 02:07:23;;;;;;;1.58;1.17;;;;;;;12.59;83.56;101856.22;5093218;29;20036;-82
2022/01/01 02:09:53;;;;;;;4.53;2.53;;;;;;;12.57;83.11;101863.25;5066150;29;20051;-82
2022/01/01 02:12:24;;;;;;;1.95;1.17;;;;;;;12.54;82.90;101852.75;5081533;29;20039;-82
2022/01/01 02:17:31;;;;;;;;;;;;;;;12.58;82.61;101858.84;5082114;29;20119;-82
2022/01/01 02:20:29;;;;;;;;;;;;;;;12.54;82.55;101851.91;5067321;29;19923;-82
2022/01/01 02:23:01;;;;;;;1.27;1.23;;;;;;;12.57;82.91;101858.00;5062689;29;19915;-82
2022/01/01 02:25:31;;;;;;;3.35;1.77;;;;;;;12.56;82.83;101860.66;5050370;29;20059;-82
2022/01/01 02:28:05;;;;;;;1.17;1.10;;;;;;;12.53;83.03;101856.28;5061204;29;20088;-82
2022/01/01 02:30:36;;;;;;;1.52;1.05;;;;;;;12.62;83.21;101851.75;5065799;29;20051;-82
2022/01/01 02:33:07;;;;;;;3.42;3.03;;;;;;;12.61;82.90;101853.53;5099305;29;20036;-82
2022/01/01 02:35:38;;;;;;;15.23;2.17;;;;;;;12.55;83.45;101851.03;5047089;29;20059;-83
2022/01/01 02:38:09;;;;;;;0.82;0.77;;;;;;;12.59;83.19;101850.06;5101144;29;20036;-82
2022/01/01 02:40:40;;;;;;;3.13;2.15;;;;;;;12.59;83.09;101856.22;5075404;29;20049;-82
2022/01/01 02:43:11;;;;;;;4.47;1.50;;;;;;;12.54;83.13;101863.28;5051660;29;20028;-82
2022/01/01 02:45:42;;;;;;;1.10;1.10;;;;;;;12.54;83.40;101859.81;5050564;29;20048;-82
2022/01/01 02:48:16;;;;;;;1.00;1.00;;;;;;;12.51;83.41;101871.25;5095999;29;20028;-82
2022/01/01 02:50:52;;;;;;;0.85;0.85;;;;;;;12.51;83.54;101871.25;5067143;29;20040;-82
2022/01/01 02:53:24;;;;;;;1.25;1.13;;;;;;;12.53;83.64;101866.81;5091576;29;20032;-82
2022/01/01 02:55:57;;;;;;;0.90;0.90;;;;;;;12.56;83.38;101860.66;5083244;29;20043;-82
2022/01/01 02:58:28;;;;;;;0.60;0.60;;;;;;;12.52;83.36;101861.59;5096106;29;20032;-82
2022/01/01 03:01:01;;;;;;;0.88;0.88;;;;;;;12.55;83.36;101865.03;5057467;29;20028;-82
2022/01/01 03:03:31;;;;;;;1.75;1.65;;;;;;;12.56;83.24;101850.97;5049308;29;20040;-82
2022/01/01 03:06:03;;;;;;;1.75;1.65;;;;;;;12.56;83.42;101856.25;5089289;29;20039;-82
2022/01/01 03:08:36;;;;;;;1.52;1.42;;;;;;;12.57;83.44;101850.09;5091834;29;20068;-82
2022/01/01 03:11:09;;;;;;;0.88;0.88;;;;;;;12.62;82.87;101850.00;5066658;29;20435;-82
2022/01/01 03:13:42;;;;;;;1.77;0.90;;;;;;;12.59;83.06;101860.59;5089967;29;20036;-82
2022/01/01 03:16:14;;;;;;;1.52;1.17;;;;;;;12.63;82.60;101856.13;5079697;29;20091;-82
2022/01/01 03:18:44;;;;;;;2.03;1.40;;;;;;;12.63;82.63;101861.41;5075023;29;20048;-82
2022/01/01 03:21:15;;;;;;;0.55;0.55;;;;;;;12.57;82.17;101862.38;5091445;29;20079;-82
2022/01/01 03:23:46;;;;;;;4.35;2.97;;;;;;;12.55;82.20;101864.19;5073287;29;20127;-82
2022/01/01 03:26:16;;;;;;;1.25;1.20;;;;;;;12.54;82.38;101860.66;5052669;29;20574;-82
2022/01/01 03:28:47;;;;;;;2.35;2.10;;;;;;;12.58;82.35;101872.91;5047197;29;20052;-82
2022/01/01 03:31:17;;;;;;;2.20;1.30;;;;;;;12.58;81.97;101865.00;5101066;29;20084;-82
2022/01/01 03:33:48;;;;;;;1.50;1.40;;;;;;;12.57;81.70;101854.47;5069467;29;20048;-82
2022/01/01 03:36:22;;;;;;;4.38;2.15;;;;;;;12.57;81.63;101860.63;5071965;29;20031;-81
2022/01/01 03:38:53;;;;;;;0.75;0.75;;;;;;;12.60;81.93;101857.06;5081102;29;20055;-82
2022/01/01 03:41:26;;;;;;;2.20;1.02;;;;;;;12.59;81.65;101864.09;5047163;29;20059;-82
2022/01/01 03:43:56;;;;;;;0.90;0.90;;;;;;;12.58;81.51;101859.72;5079995;29;20048;-82
2022/01/01 03:46:27;;;;;;;6.20;1.45;;;;;;;12.59;81.38;101856.22;5085393;29;20055;-82
2022/01/01 03:48:57;;;;;;;0.95;0.95;;;;;;;12.63;81.20;101851.75;5070673;29;20048;-82
2022/01/01 03:51:35;;;;;;;0.60;0.60;;;;;;;12.59;82.17;101845.69;5090358;29;20052;-82
2022/01/01 03:54:07;;;;;;;0.47;0.47;;;;;;;12.64;81.75;101842.06;5063434;29;20048;-82
2022/01/01 03:56:38;;;;;;;1.73;1.50;;;;;;;12.66;81.74;101835.03;5058275;29;20036;-80
2022/01/01 03:59:10;;;;;;;1.58;1.48;;;;;;;12.71;82.29;101834.06;5092627;29;20415;-82
2022/01/01 04:01:41;;;;;;;0.98;0.88;;;;;;;12.68;81.69;101828.84;5094170;29;20039;-82
2022/01/01 04:04:12;;;;;;;5.15;2.50;;;;;;;12.71;81.98;101830.53;5073723;29;20075;-82
2022/01/01 04:06:42;;;;;;;1.70;1.35;;;;;;;12.79;81.71;101830.41;5072001;29;20090;-83
2022/01/01 04:09:14;;;;;;;4.38;1.80;;;;;;;12.81;82.21;101837.38;5083184;29;20036;-82
2022/01/01 04:11:52;;;;;;;3.20;2.22;;;;;;;12.89;82.19;101838.09;5065839;29;20024;-82
2022/01/01 04:14:25;;;;;;;2.80;1.30;;;;;;;12.87;82.03;101837.25;5056104;29;20047;-82
2022/01/01 04:16:58;;;;;;;2.30;1.15;;;;;;;12.88;82.09;101833.72;5090317;29;20051;-82
2022/01/01 04:19:39;;;;;;;15.75;1.35;;;;;;;13.00;82.27;101835.25;5082334;29;20044;-82
2022/01/01 04:22:11;;;;;;;2.00;0.98;;;;;;;13.00;82.22;101840.53;5067954;29;20480;-83
2022/01/01 04:24:49;;;;;;;1.98;1.70;;;;;;;12.96;81.95;101835.34;5089940;29;20032;-82
2022/01/01 04:27:20;;;;;;;0.63;0.63;;;;;;;12.97;81.97;101834.44;5053413;29;20040;-81
2022/01/01 04:29:51;;;;;;;0.93;0.93;;;;;;;13.01;81.92;101828.25;5079698;29;20047;-82
2022/01/01 04:32:34;;;;;;;0.50;0.50;;;;;;;12.90;81.25;101834.56;5049105;29;20039;-82
2022/01/01 04:35:05;;;;;;;1.30;1.20;;;;;;;12.93;81.62;101832.78;5077999;29;20503;-83
2022/01/01 04:37:38;;;;;;;1.02;0.98;;;;;;;12.93;81.31;101833.63;5094609;29;20044;-82
2022/01/01 04:40:10;;;;;;;0.63;0.63;;;;;;;12.90;81.57;101829.31;5053318;29;20082;-83
2022/01/01 04:42:41;;;;;;;0.52;0.52;;;;;;;12.97;81.07;101831.81;5098923;29;20056;-80
2022/01/01 04:45:11;;;;;;;0.40;0.40;;;;;;;13.03;81.42;101839.59;5086039;29;20040;-81
2022/01/01 04:47:42;;;;;;;1.30;1.00;;;;;;;12.97;81.35;101839.72;5073782;29;20138;-82
2022/01/01 04:50:13;;;;;;;0.60;0.60;;;;;;;13.01;81.23;101841.41;5063606;29;20036;-82
2022/01/01 04:52:44;;;;;;;7.15;1.45;;;;;;;12.89;80.35;101839.88;5067852;29;20028;-82
2022/01/01 04:55:17;;;;;;;0.63;0.63;;;;;;;12.98;81.40;101844.94;5051746;29;20175;-82
2022/01/01 04:57:48;;;;;;;0.63;0.63;;;;;;;12.83;79.46;101837.34;5069176;29;20043;-81
2022/01/01 05:00:18;;;;;;;0.50;0.50;;;;;;;12.85;80.57;101830.28;5083594;29;20044;-83
2022/01/01 05:02:52;;;;;;;0.85;0.85;;;;;;;12.80;79.98;101835.63;5051287;29;20031;-82
2022/01/01 05:05:25;;;;;;;0.63;0.60;;;;;;;12.87;81.08;101839.88;5082138;29;20049;-82
2022/01/01 05:08:06;;;;;;;;;;;;;;;;;;;;;
2022/01/01 05:10:37;;;;;;;1.13;1.08;;;;;;;12.83;79.40;101858.41;5059280;29;20123;-81
2022/01/01 05:13:10;;;;;;;0.63;0.63;;;;;;;12.82;80.24;101849.66;5088056;29;20207;-81
2022/01/01 05:15:42;;;;;;;;;;;;;;;12.84;79.60;101849.63;5081627;29;20135;-82
2022/01/01 05:18:14;;;;;;;0.75;0.75;;;;;;;12.84;79.61;101855.78;5082165;29;19918;-82
2022/01/01 05:20:45;;;;;;;0.80;0.80;;;;;;;12.90;80.20;101860.91;5073157;29;20467;-80
2022/01/01 05:23:19;;;;;;;0.73;0.73;;;;;;;12.97;80.28;101860.78;5068483;29;20038;-82
2022/01/01 05:25:52;;;;;;;0.47;0.47;;;;;;;12.78;78.74;101861.13;5064401;29;20517;-82
2022/01/01 05:28:23;;;;;;;0.57;0.57;;;;;;;12.75;79.55;101854.16;5094524;29;20119;-82
2022/01/01 05:30:56;;;;;;;6.70;1.30;;;;;;;12.75;79.80;101861.19;5082419;29;20032;-81
2022/01/01 05:33:29;;;;;;;0.65;0.65;;;;;;;12.72;78.39;101854.22;5038192;29;20082;-81
2022/01/01 05:36:00;;;;;;;0.57;0.57;;;;;;;12.66;78.31;101856.94;5099203;28;20054;-81
2022/01/01 05:38:39;;;;;;;1.05;1.05;;;;;;;12.68;78.49;101852.53;5052082;29;20115;-81
2022/01/01 05:41:10;;;;;;;1.15;1.15;;;;;;;12.62;78.62;101855.28;5072073;29;20025;-80
2022/01/01 05:43:41;;;;;;;1.38;0.98;;;;;;;12.60;78.68;101857.91;5062316;29;20043;-82
2022/01/01 05:46:12;;;;;;;0.70;0.70;;;;;;;12.62;79.19;101859.66;5097834;29;20028;-82
2022/01/01 05:48:42;;;;;;;0.68;0.68;;;;;;;12.67;79.17;101863.09;5081941;29;20402;-82
2022/01/01 05:51:13;;;;;;;0.47;0.47;;;;;;;12.65;79.39;101859.63;5066722;29;20116;-82
2022/01/01 05:53:46;;;;;;;0.40;0.40;;;;;;;12.71;79.11;101867.41;5050908;29;20527;-82
2022/01/01 05:56:16;;;;;;;0.32;0.32;;;;;;;12.66;77.96;101856.94;5073089;29;20043;-82
2022/01/01 05:58:47;;;;;;;8.20;1.85;;;;;;;12.72;78.31;101861.25;5077112;29;20045;-82
2022/01/01 06:01:18;;;;;;;0.40;0.40;;;;;;;12.71;79.32;101851.59;5087153;29;20024;-82
2022/01/01 06:03:49;;;;;;;0.65;0.65;;;;;;;12.67;78.21;101852.56;5064492;29;20058;-82
2022/01/01 06:06:26;;;;;;;0.90;0.90;;;;;;;12.71;78.94;101844.59;5083788;29;20032;-81
2022/01/01 06:08:56;;;;;;;0.82;0.80;;;;;;;12.78;79.17;101840.06;5083378;29;20681;-82
2022/01/01 06:11:27;;;;;;;0.47;0.47;;;;;;;12.77;77.89;101858.53;5100314;29;20096;-82
2022/01/01 06:13:58;;;;;;;5.68;1.77;;;;;;;12.81;79.01;101861.06;5054952;29;20044;-82
2022/01/01 06:16:31;;;;;;;0.55;0.55;;;;;;;12.76;77.71;101852.41;5075677;29;20028;-82
2022/01/01 06:19:02;;;;;;;1.45;1.35;;;;;;;12.68;78.79;101852.53;5073038;29;20048;-82
2022/01/01 06:21:33;;;;;;;0.70;0.70;;;;;;;12.72;78.67;101845.44;5092978;29;20331;-82
2022/01/01 06:24:06;;;;;;;0.60;0.60;;;;;;;12.80;78.34;101848.81;5066387;29;20083;-82
2022/01/01 06:26:37;;;;;;;0.47;0.47;;;;;;;12.75;78.26;101862.06;5082270;29;20064;-82
2022/01/01 06:29:08;;;;;;;0.73;0.73;;;;;;;12.71;77.97;101865.66;5070660;29;20040;-82
2022/01/01 06:31:39;;;;;;;0.95;0.93;;;;;;;12.65;78.55;101870.16;5080026;29;20062;-83
2022/01/01 06:34:09;;;;;;;2.15;1.58;;;;;;;12.68;78.49;101875.38;5060218;29;20048;-81
2022/01/01 06:36:40;;;;;;;0.55;0.55;;;;;;;12.64;77.86;101869.28;5100034;29;20064;-82
2022/01/01 06:39:10;;;;;;;0.60;0.45;;;;;;;12.62;77.85;101867.56;5091251;29;20157;-82
2022/01/01 06:41:43;;;;;;;1.35;1.25;;;;;;;12.62;78.40;101872.81;5095281;29;20559;-82
2022/01/01 06:44:14;;;;;;;1.45;1.08;;;;;;;12.54;77.37;101872.97;5063607;29;20138;-81
2022/01/01 06:47:00;;;;;;;0.45;0.45;;;;;;;12.65;78.50;101881.53;5083752;29;20523;-84
2022/01/01 06:49:37;;;;;;;0.90;0.90;;;;;;;12.59;77.49;101871.13;5082021;29;20020;-83
2022/01/01 06:52:08;;;;;;;0.60;0.60;;;;;;;12.58;77.68;101872.00;5086803;29;20498;-83
2022/01/01 06:54:41;;;;;;;0.80;0.80;;;;;;;12.62;78.24;101875.47;5081926;29;20099;-83
2022/01/01 06:57:12;;;;;;;;;;;;;;;12.69;77.64;101877.97;5070296;29;20527;-83
2022/01/01 06:59:42;;;;;;;0.40;0.40;;;;;;;12.56;77.05;101866.78;5047731;29;19929;-84
2022/01/01 07:02:13;;;;;;;0.50;0.50;;;;;;;12.66;77.20;101869.25;5095750;29;20551;-83
2022/01/01 07:04:50;;;;;;;0.57;0.57;;;;;;;12.67;77.37;101869.22;5048022;29;20040;-83
2022/01/01 07:07:23;;;;;;;2.30;1.58;;;;;;;12.60;76.88;101863.19;5066382;29;20036;-83
2022/01/01 07:09:53;;;;;;;0.75;0.75;;;;;;;12.70;77.92;101873.56;5048389;29;20040;-83
2022/01/01 07:12:28;;;;;;;0.73;0.73;;;;;;;12.75;77.98;101871.72;5079820;29;20092;-83
2022/01/01 07:15:01;;;;;;;0.30;0.30;;;;;;;12.72;78.45;101872.66;5070880;29;20048;-83
2022/01/01 07:17:32;;;;;;;;;;;;;;;12.70;76.95;101873.56;5081082;29;20495;-83
2022/01/01 07:20:08;;;;;;;5.80;1.23;;;;;;;12.74;78.58;101880.53;5071725;29;19930;-83
2022/01/01 07:22:42;;;;;;;;;;;;;;;12.77;78.89;101890.97;5082131;29;20171;-83
2022/01/01 07:25:15;;;;;;;0.80;0.80;;;;;;;12.73;78.21;101892.81;5089313;29;19993;-82
2022/01/01 07:28:05;;;;;;;0.50;0.50;;;;;;;12.77;78.40;101888.34;5052639;29;20047;-82
2022/01/01 07:30:36;;;;;;;0.65;0.65;;;;;;;12.84;78.51;101900.53;5080061;29;20044;-82
2022/01/01 07:33:07;;;;;;;0.90;0.90;;;;;;;12.86;78.89;101900.50;5080556;29;20650;-82
2022/01/01 07:35:37;;;;;;;0.45;0.45;;;;;;;12.87;79.08;101905.75;5094187;29;20048;-82
2022/01/01 07:38:11;;;;;;;0.77;0.77;;;;;;;12.84;79.09;101911.09;5073430;29;20430;-81
2022/01/01 07:40:41;;;;;;;;;;;;;;;12.82;78.73;101907.59;5057472;29;20048;-82
2022/01/01 07:43:13;;;;;;;0.52;0.52;;;;;;;12.85;78.41;101907.53;5073403;29;19925;-82
2022/01/01 07:45:47;;;;;;;0.77;0.77;;;;;;;12.82;78.35;101899.69;5078725;29;20052;-83
2022/01/01 07:48:18;;;;;;;0.50;0.50;;;;;;;12.82;78.69;101893.53;5050588;29;20044;-83
2022/01/01 07:50:48;;;;;;;3.60;1.10;;;;;;;12.83;78.52;101904.06;5077682;29;20572;-82
2022/01/01 07:53:20;;;;;;;0.40;0.40;;;;;;;12.82;77.73;101902.31;5097026;29;20043;-82
2022/01/01 07:55:50;;;;;;;0.30;0.30;;;;;;;12.81;78.12;101900.59;5085806;29;20047;-82
2022/01/01 07:58:21;;;;;;;0.68;0.68;;;;;;;12.70;76.81;101905.16;5077327;29;20033;-82
2022/01/01 08:00:52;;;;;;;0.50;0.50;;;;;;;12.80;78.72;101904.13;5063256;29;20046;-82
2022/01/01 08:03:23;;;;;;;1.90;1.25;;;;;;;12.80;77.55;101911.16;5058745;29;20043;-83
2022/01/01 08:06:18;;;;;;;0.60;0.60;;;;;;;12.79;77.95;101920.81;5084550;29;21338;-83
2022/01/01 08:08:51;;;;;;;0.65;0.40;;;;;;;12.76;77.23;101920.88;5046284;29;20048;-83
2022/01/01 08:11:24;;;;;;;0.30;0.30;;;;;;;12.81;78.30;101903.22;5077699;29;20400;-83
2022/01/01 08:14:00;;;;;;;0.55;0.55;;;;;;;12.79;77.79;101904.16;5048553;29;20530;-82
2022/01/01 08:16:34;;;;;;;0.40;0.40;;;;;;;12.81;78.41;101913.75;5069140;29;20036;-82
2022/01/01 08:19:04;;;;;;;;;;;;;;;12.77;78.20;101919.97;5071443;29;20044;-83
2022/01/01 08:21:40;;;;;;;0.88;0.88;;;;;;;12.82;78.24;101925.16;5047350;29;19950;-83
2022/01/01 08:24:11;;;;;;;3.20;1.90;;;;;;;12.86;78.12;101922.44;5060284;29;20582;-83
2022/01/01 08:26:46;;;;;;;0.45;0.45;;;;;;;12.80;76.90;101917.28;5078774;29;20032;-83
2022/01/01 08:29:17;;;;;;;0.68;0.68;;;;;;;12.80;77.99;101912.00;5096032;29;20104;-83
2022/01/01 08:31:50;;;;;;;0.63;0.63;;;;;;;12.82;78.18;101926.03;5081384;29;20104;-83
2022/01/01 08:34:22;;;;;;;0.68;0.68;;;;;;;12.84;78.47;101928.63;5043985;29;20051;-83
2022/01/01 08:36:59;;;;;;;0.85;0.85;;;;;;;12.80;77.58;101922.53;5088998;29;20037;-83
2022/01/01 08:39:34;;;;;;;0.55;0.55;;;;;;;12.81;77.76;101919.03;5073578;29;20793;-83
2022/01/01 08:42:05;;;;;;;1.85;1.23;;;;;;;12.81;77.53;101916.38;5087619;29;20028;-83
2022/01/01 08:44:38;;;;;;;0.40;0.40;;;;;;;12.80;77.65;101922.53;5065104;29;20032;-83
2022/01/01 08:47:09;;;;;;;0.50;0.50;;;;;;;12.78;76.73;101913.78;5075870;29;20047;-83
2022/01/01 08:49:40;;;;;;;0.50;0.50;;;;;;;12.78;77.68;101926.09;5071405;29;20051;-83
2022/01/01 08:52:15;;;;;;;0.73;0.73;;;;;;;12.73;77.09;101920.91;5085439;29;20031;-83
2022/01/01 08:54:56;;;;;;;0.50;0.50;;;;;;;12.81;77.21;101918.16;5078591;29;20036;-83
2022/01/01 08:57:29;;;;;;;0.32;0.32;;;;;;;12.86;77.89;101921.59;5082508;29;20084;-83
2022/01/01 09:00:11;;;;;;;0.98;0.98;;;;;;;12.85;78.03;101918.06;5064372;29;20040;-83
2022/01/01 09:02:44;;;;;;;0.30;0.30;;;;;;;12.83;77.39;101919.88;5078824;29;20436;-83
2022/01/01 09:05:18;;;;;;;0.40;0.40;;;;;;;12.82;76.36;101920.75;5071824;29;20095;-83
2022/01/01 09:07:48;;;;;;;;;;;;;;;12.89;78.02;101919.75;5067598;29;20028;-83
2022/01/01 09:10:22;;;;;;;0.60;0.60;;;;;;;12.95;78.20;101912.63;5081753;29;19922;-83
2022/01/01 09:12:52;;;;;;;0.55;0.55;;;;;;;12.94;77.86;101910.88;5076594;29;20028;-83
2022/01/01 09:15:23;;;;;;;2.75;0.50;;;;;;;12.93;77.19;101907.41;5082495;29;20136;-83
2022/01/01 09:17:57;;;;;;;0.57;0.57;;;;;;;13.02;77.77;101901.09;5066466;29;20036;-84
2022/01/01 09:20:27;;;;;;;1.65;1.40;;;;;;;12.97;77.32;101903.81;5086477;29;20130;-84
2022/01/01 09:23:03;;;;;;;0.68;0.68;;;;;;;13.01;76.90;101904.63;5048468;29;20076;-83
2022/01/01 09:25:36;;;;;;;0.35;0.35;;;;;;;13.00;76.90;101902.91;5065264;29;20048;-83
2022/01/01 09:28:08;;;;;;;0.50;0.50;;;;;;;13.01;76.47;101902.00;5062051;29;20100;-83
2022/01/01 09:30:38;;;;;;;7.32;1.88;;;;;;;12.93;76.27;101898.63;5057945;29;20045;-84
2022/01/01 09:33:10;;;;;;;1.55;1.45;;;;;;;13.00;75.34;101897.63;5077257;29;20028;-83
2022/01/01 09:35:43;;;;;;;0.55;0.55;;;;;;;12.96;75.53;101899.44;5082494;29;20103;-83
2022/01/01 09:38:13;;;;;;;;;;;;;;;12.99;76.12;101901.16;5061467;29;20028;-84
2022/01/01 09:40:44;;;;;;;0.40;0.40;;;;;;;13.02;74.48;101901.09;5091007;29;19927;-84
2022/01/01 09:43:16;;;;;;;0.75;0.75;;;;;;;13.06;75.54;101908.03;5077124;29;20043;-83
2022/01/01 09:45:59;;;;;;;;;;;;;;;;;;;;;
2022/01/01 09:48:31;;;;;;;0.40;0.40;;;;;;;13.09;76.13;101922.91;5064764;29;20063;-83
2022/01/01 09:51:03;;;;;;;0.50;0.50;;;;;;;13.06;74.93;101929.13;5090462;29;20272;-83
2022/01/01 09:53:36;;;;;;;0.82;0.82;;;;;;;13.07;76.16;101931.72;5075200;29;20024;-83
2022/01/01 09:56:14;;;;;;;0.50;0.50;;;;;;;13.05;75.05;101928.28;5063557;29;20047;-83
2022/01/01 09:58:45;;;;;;;0.40;0.40;;;;;;;13.07;75.60;101936.13;5087257;29;20067;-84
2022/01/01 10:01:16;;;;;;;0.40;0.40;;;;;;;13.13;76.98;101935.16;5080253;29;20108;-84
2022/01/01 10:03:51;;;;;;;0.75;0.75;;;;;;;13.17;76.60;101929.81;5072389;29;20599;-84
2022/01/01 10:06:33;;;;;;;0.30;0.30;;;;;;;13.14;75.53;101924.59;5072933;29;20850;-84
2022/01/01 10:09:04;;;;;;;0.30;0.30;;;;;;;13.15;75.96;101918.41;5063163;29;20047;-84
2022/01/01 10:11:38;;;;;;;0.90;0.88;;;;;;;13.28;75.10;101911.16;5095148;29;20035;-84
2022/01/01 10:14:14;;;;;;;0.47;0.47;;;;;;;13.25;75.95;101923.53;5052545;29;20048;-84
2022/01/01 10:16:44;;;;;;;0.30;0.30;;;;;;;13.21;75.78;101914.81;5092238;29;20048;-82
2022/01/01 10:19:20;;;;;;;0.73;0.73;;;;;;;13.21;75.88;101918.28;5066077;29;20480;-83
2022/01/01 10:21:57;;;;;;;0.40;0.40;;;;;;;13.24;75.71;101912.09;5091395;29;20071;-82
2022/01/01 10:27:42;;;;;;;1.30;1.20;;;;;;;13.17;75.18;101911.34;5086577;29;20054;-82
2022/01/01 10:30:32;;;;;;;0.40;0.40;;;;;;;13.29;76.19;101917.28;5091797;29;20048;-85
2022/01/01 10:33:11;;;;;;;0.60;0.60;;;;;;;13.27;75.31;101916.44;5077342;29;20040;-82
2022/01/01 10:35:42;;;;;;;0.60;0.60;;;;;;;13.40;74.92;101907.44;5079294;29;20044;-82
2022/01/01 10:38:26;;;;;;;11.05;0.95;;;;;;;13.34;75.64;101902.25;5050422;29;20119;-81
2022/01/01 10:41:15;;;;;;;0.30;0.30;;;;;;;13.37;75.88;101902.19;5077841;29;20040;-82
2022/01/01 10:43:46;;;;;;;1.05;0.70;;;;;;;13.36;74.92;101896.06;5069668;29;20102;-83
2022/01/01 10:46:20;;;;;;;1.38;1.15;;;;;;;13.38;74.59;101896.00;5079570;29;20036;-83
2022/01/01 10:48:57;;;;;;;0.52;0.52;;;;;;;13.38;75.52;101882.84;5062323;29;20044;-83
2022/01/01 10:51:36;;;;;;;7.75;1.20;;;;;;;13.44;75.50;101879.25;5050775;29;20071;-83
2022/01/01 10:54:15;;;;;;;0.40;0.40;;;;;;;13.46;75.41;101870.38;5066677;29;20050;-83
2022/01/01 10:56:49;;;;;;;0.30;0.30;;;;;;;13.47;75.07;101879.19;5083033;29;20028;-83
2022/01/01 10:59:30;;;;;;;0.30;0.30;;;;;;;13.49;75.66;101864.19;5066254;29;20052;-84
2022/01/01 11:02:05;;;;;;;0.50;0.50;;;;;;;13.54;74.56;101865.81;5051801;29;20063;-83
2022/01/01 11:04:41;;;;;;;0.43;0.43;;;;;;;13.53;76.00;101858.81;5080177;29;20731;-84
2022/01/01 11:07:27;;;;;;;3.25;0.60;;;;;;;13.53;75.25;101861.44;5069337;29;20581;-83
2022/01/01 11:09:59;;;;;;;0.50;0.50;;;;;;;13.58;74.93;101852.59;5090515;29;20036;-83
2022/01/01 11:12:32;;;;;;;0.40;0.40;;;;;;;13.52;75.23;101854.44;5051575;29;20059;-83
2022/01/01 11:15:11;;;;;;;0.40;0.40;;;;;;;13.60;76.15;101849.00;5074767;29;20131;-84
2022/01/01 11:17:43;;;;;;;0.30;0.30;;;;;;;13.64;75.38;101849.81;5070769;29;20036;-84
2022/01/01 11:20:16;;;;;;;0.40;0.40;;;;;;;13.65;75.01;101844.50;5058758;29;20048;-84
2022/01/01 11:22:50;;;;;;;0.55;0.55;;;;;;;13.69;75.58;101832.09;5079861;29;20050;-84
2022/01/01 11:25:21;;;;;;;0.57;0.57;;;;;;;13.70;76.04;101833.84;5057230;29;20051;-84
2022/01/01 11:27:53;;;;;;;0.52;0.52;;;;;;;13.72;75.24;101824.13;5065807;29;20435;-84
2022/01/01 11:30:29;;;;;;;4.25;2.22;;;;;;;13.72;74.98;101823.28;5067403;29;20090;-84
2022/01/01 11:33:16;;;;;;;0.95;0.95;;;;;;;13.70;75.34;101810.09;5070442;29;20032;-84
2022/01/01 11:35:54;;;;;;;0.75;0.75;;;;;;;13.79;75.87;101799.34;5083846;29;20044;-84
2022/01/01 11:38:34;;;;;;;0.30;0.30;;;;;;;13.88;75.11;101794.75;5079072;29;20511;-82
2022/01/01 11:41:06;;;;;;;0.55;0.55;;;;;;;13.86;74.70;101792.16;5082142;29;20036;-84
2022/01/01 11:43:46;;;;;;;0.40;0.40;;;;;;;13.90;74.84;101787.69;5065583;29;20306;-83
2022/01/01 11:46:17;;;;;;;0.35;0.35;;;;;;;14.03;75.04;101793.53;5067239;29;20383;-82
2022/01/01 11:48:49;;;;;;;4.47;0.95;;;;;;;14.09;74.65;101783.66;5065142;29;20056;-82
2022/01/01 11:51:29;;;;;;;0.40;0.40;;;;;;;14.05;75.74;101784.66;5049823;29;20034;-82
2022/01/01 11:54:15;;;;;;;0.30;0.30;;;;;;;14.12;74.44;101783.59;5077634;29;20139;-82
2022/01/01 11:56:51;;;;;;;0.32;0.32;;;;;;;14.15;73.99;101788.81;5075328;29;20052;-82
2022/01/01 11:59:37;;;;;;;0.38;0.38;;;;;;;14.16;74.75;101776.47;5088676;29;20052;-82
2022/01/01 12:02:13;;;;;;;0.40;0.40;;;;;;;14.21;74.67;101779.00;5095275;29;20032;-82